Palm Springs, CA

2:11 AM PDT on October 20, 2014 (GMT -0700)
Edom Hill | Change Station
CLOSE
Current Station
Personal Weather Station
Location: Desert Hot Springs, CA
Elevation: 1529 ft
Nearby Weather Stations

Elev 1529 ft 33.87 °N, 116.44 °W | Updated 17 seconds ago

Clear
Clear
75.4 °F
Feels Like 77 °F
N
21.9
Wind Variable Wind from NW
Gusts 21.9 mph

Today
High -- | Low -- °F
--% Chance of Precip.
Yesterday
High -- | Low -- °F
Precip. -- in
6:55 AM 6:06 PM
Waning Crescent, 12% visible
Pressure 29.81 in
Visibility 10.0 miles
Clouds Clear
Heat Index 77 °F
Dew Point 45 °F
Humidity 34%
Rainfall 0.00 in
Snow Depth Not available.
UV 0.0 out of 12
Pollen 3.80 out of 12
Ozone Good
Flu Activity Sporadic
METAR KPSP 200853Z AUTO 31003KT 10SM CLR 23/13 A2982 RMK AO2 SLP095 T02330128 55002 TSNO

More Conditions Fewer Conditions

Pressure 29.81 in
Visibility 10.0 miles
Clouds Clear
Heat Index 77 °F
Dew Point 45 °F
Humidity 34%
Rainfall 0.00 in
Snow Depth Not available.
UV 0.0 out of 12
Pollen 3.80 out of 12
Ozone Good
Flu Activity Sporadic
METAR KPSP 200853Z AUTO 31003KT 10SM CLR 23/13 A2982 RMK AO2 SLP095 T02330128 55002 TSNO

More Conditions Fewer Conditions

10-Day Weather Forecast

Almanac

Astronomy

Oct. 20, 2014 Rise Set
Actual Time 6:55 AM PDT 6:06 PM PDT
Civil Twilight 6:29 AM PDT 6:31 PM PDT
Nautical Twilight 6:00 AM PDT 7:00 PM PDT
Astronomical Twilight 5:31 AM PDT 7:29 PM PDT
Moon 3:56 AM PDT 4:24 PM PDT
Length of Visible Light 12h 01m
Length of Day
11h 10m
Waning Crescent, 12% of the Moon is Illuminated
Today
Waning Crescent
Oct 23
New
Oct 30
First Quarter
Nov 6
Full
Nov 14
Last Quarter

Today's Extremes

State Highs State Lows

Community

WunderPhotos

Upload Photos

1,763,316 photos uploaded!

Nearby

Air Quality

  Air Quality AQ Index Pollutant
Yesterday Moderate
OZONE
Yesterday Good
PM10
Current Good
OZONE
Monday Good
PM2.5
Monday Moderate
OZONE
Monday Good
CO
Monday Good
NO2

Snow Depth

Station Depth Elevation
Leavitt Lake 1 in 9400 ft
Leavitt Meadows 1 in 7200 ft
Sonora Pass 0 in 8800 ft
Summit Meadow 1 in 9122 ft
Poison Flat 0 in 7900 ft

Earthquake Activity

City Distance Mag. Time & Date
Fort Irwin, California 80 miles 3.1 6:03 AM PDT
2014-10-17
Minimum magnitude displayed is 2.5.

Coastal Water Temperatures

Place Temperature
No Stations Reporting

Nearby Weather Stations